sensor_id;sensor_type;location;lat;lon;timestamp;P1;durP1;ratioP1;P2;durP2;ratioP2
57828;SDS011;43657;52.698;6.314;2023-10-31T00:01:34;18.75;;;12.07;;
57828;SDS011;43657;52.698;6.314;2023-10-31T00:04:00;15.65;;;11.52;;
57828;SDS011;43657;52.698;6.314;2023-10-31T00:06:26;21.17;;;13.15;;
57828;SDS011;43657;52.698;6.314;2023-10-31T00:08:51;12.60;;;11.30;;
57828;SDS011;43657;52.698;6.314;2023-10-31T00:11:17;12.00;;;8.27;;
57828;SDS011;43657;52.698;6.314;2023-10-31T00:13:42;9.23;;;7.22;;
57828;SDS011;43657;52.698;6.314;2023-10-31T00:16:08;5.85;;;5.20;;
57828;SDS011;43657;52.698;6.314;2023-10-31T00:18:33;7.35;;;5.10;;
57828;SDS011;43657;52.698;6.314;2023-10-31T00:20:59;5.80;;;4.75;;
57828;SDS011;43657;52.698;6.314;2023-10-31T00:23:25;7.00;;;5.15;;
57828;SDS011;43657;52.698;6.314;2023-10-31T00:25:50;5.32;;;4.18;;
57828;SDS011;43657;52.698;6.314;2023-10-31T00:28:16;5.18;;;4.35;;
57828;SDS011;43657;52.698;6.314;2023-10-31T00:30:42;5.32;;;4.00;;
57828;SDS011;43657;52.698;6.314;2023-10-31T00:33:07;7.43;;;4.15;;
57828;SDS011;43657;52.698;6.314;2023-10-31T00:35:33;16.58;;;5.10;;
57828;SDS011;43657;52.698;6.314;2023-10-31T00:37:58;5.85;;;4.28;;
57828;SDS011;43657;52.698;6.314;2023-10-31T00:40:24;10.65;;;5.05;;
57828;SDS011;43657;52.698;6.314;2023-10-31T00:42:49;31.75;;;10.77;;
57828;SDS011;43657;52.698;6.314;2023-10-31T00:45:15;19.48;;;13.05;;
57828;SDS011;43657;52.698;6.314;2023-10-31T00:47:41;19.98;;;9.70;;
57828;SDS011;43657;52.698;6.314;2023-10-31T00:50:06;14.95;;;7.55;;
57828;SDS011;43657;52.698;6.314;2023-10-31T00:52:33;17.00;;;7.63;;
57828;SDS011;43657;52.698;6.314;2023-10-31T00:54:58;15.23;;;9.50;;
57828;SDS011;43657;52.698;6.314;2023-10-31T00:57:24;9.57;;;6.28;;
57828;SDS011;43657;52.698;6.314;2023-10-31T00:59:49;12.73;;;8.98;;
57828;SDS011;43657;52.698;6.314;2023-10-31T01:02:15;7.90;;;5.80;;
57828;SDS011;43657;52.698;6.314;2023-10-31T01:04:41;14.85;;;7.95;;
57828;SDS011;43657;52.698;6.314;2023-10-31T01:07:07;9.70;;;4.07;;
57828;SDS011;43657;52.698;6.314;2023-10-31T01:09:36;7.50;;;3.10;;
57828;SDS011;43657;52.698;6.314;2023-10-31T01:12:02;7.47;;;3.85;;
57828;SDS011;43657;52.698;6.314;2023-10-31T01:14:27;12.27;;;6.90;;
57828;SDS011;43657;52.698;6.314;2023-10-31T01:16:53;19.63;;;13.50;;
57828;SDS011;43657;52.698;6.314;2023-10-31T01:19:19;9.30;;;7.85;;
57828;SDS011;43657;52.698;6.314;2023-10-31T01:21:44;9.30;;;5.15;;
57828;SDS011;43657;52.698;6.314;2023-10-31T01:24:10;9.00;;;4.22;;
57828;SDS011;43657;52.698;6.314;2023-10-31T01:26:35;20.63;;;7.00;;
57828;SDS011;43657;52.698;6.314;2023-10-31T01:29:01;21.48;;;8.55;;
57828;SDS011;43657;52.698;6.314;2023-10-31T01:31:26;11.60;;;4.88;;
57828;SDS011;43657;52.698;6.314;2023-10-31T01:33:53;25.25;;;6.63;;
57828;SDS011;43657;52.698;6.314;2023-10-31T01:36:18;27.30;;;6.97;;
57828;SDS011;43657;52.698;6.314;2023-10-31T01:38:44;7.43;;;3.53;;
57828;SDS011;43657;52.698;6.314;2023-10-31T01:41:11;13.15;;;4.28;;
57828;SDS011;43657;52.698;6.314;2023-10-31T01:43:37;13.48;;;4.30;;
57828;SDS011;43657;52.698;6.314;2023-10-31T01:46:03;14.77;;;4.63;;
57828;SDS011;43657;52.698;6.314;2023-10-31T01:48:29;24.45;;;5.95;;
57828;SDS011;43657;52.698;6.314;2023-10-31T01:50:57;9.05;;;3.22;;
57828;SDS011;43657;52.698;6.314;2023-10-31T01:53:24;7.93;;;2.53;;
57828;SDS011;43657;52.698;6.314;2023-10-31T01:55:52;7.72;;;2.28;;
57828;SDS011;43657;52.698;6.314;2023-10-31T01:58:20;11.00;;;2.95;;
57828;SDS011;43657;52.698;6.314;2023-10-31T02:00:51;11.63;;;2.97;;
57828;SDS011;43657;52.698;6.314;2023-10-31T02:03:17;10.15;;;3.03;;
57828;SDS011;43657;52.698;6.314;2023-10-31T02:05:43;15.90;;;3.60;;
57828;SDS011;43657;52.698;6.314;2023-10-31T02:08:09;13.93;;;3.70;;
57828;SDS011;43657;52.698;6.314;2023-10-31T02:10:34;19.25;;;5.72;;
57828;SDS011;43657;52.698;6.314;2023-10-31T02:13:10;10.80;;;6.03;;
57828;SDS011;43657;52.698;6.314;2023-10-31T02:15:39;27.30;;;8.43;;
57828;SDS011;43657;52.698;6.314;2023-10-31T02:18:05;29.08;;;9.48;;
57828;SDS011;43657;52.698;6.314;2023-10-31T02:20:32;30.73;;;10.18;;
57828;SDS011;43657;52.698;6.314;2023-10-31T02:22:57;38.95;;;10.90;;
57828;SDS011;43657;52.698;6.314;2023-10-31T02:25:23;28.13;;;10.38;;
57828;SDS011;43657;52.698;6.314;2023-10-31T02:27:49;45.03;;;11.60;;
57828;SDS011;43657;52.698;6.314;2023-10-31T02:30:14;33.05;;;9.98;;
57828;SDS011;43657;52.698;6.314;2023-10-31T02:32:40;17.60;;;8.23;;
57828;SDS011;43657;52.698;6.314;2023-10-31T02:35:06;37.58;;;10.48;;
57828;SDS011;43657;52.698;6.314;2023-10-31T02:37:33;20.95;;;9.25;;
57828;SDS011;43657;52.698;6.314;2023-10-31T02:39:59;43.67;;;12.30;;
57828;SDS011;43657;52.698;6.314;2023-10-31T02:42:25;27.13;;;10.27;;
57828;SDS011;43657;52.698;6.314;2023-10-31T02:44:51;38.35;;;13.57;;
57828;SDS011;43657;52.698;6.314;2023-10-31T02:47:17;44.75;;;14.27;;
57828;SDS011;43657;52.698;6.314;2023-10-31T02:49:42;51.83;;;15.05;;
57828;SDS011;43657;52.698;6.314;2023-10-31T02:52:08;20.88;;;10.77;;
57828;SDS011;43657;52.698;6.314;2023-10-31T02:54:33;51.67;;;15.23;;
57828;SDS011;43657;52.698;6.314;2023-10-31T02:56:59;28.13;;;13.48;;
57828;SDS011;43657;52.698;6.314;2023-10-31T02:59:25;54.92;;;17.00;;
57828;SDS011;43657;52.698;6.314;2023-10-31T03:01:51;59.78;;;17.80;;
57828;SDS011;43657;52.698;6.314;2023-10-31T03:04:17;50.42;;;14.75;;
57828;SDS011;43657;52.698;6.314;2023-10-31T03:06:43;52.30;;;16.70;;
57828;SDS011;43657;52.698;6.314;2023-10-31T03:09:08;38.95;;;16.58;;
57828;SDS011;43657;52.698;6.314;2023-10-31T03:11:34;65.35;;;18.65;;
57828;SDS011;43657;52.698;6.314;2023-10-31T03:14:00;62.88;;;20.70;;
57828;SDS011;43657;52.698;6.314;2023-10-31T03:16:26;67.00;;;19.92;;
57828;SDS011;43657;52.698;6.314;2023-10-31T03:18:51;64.22;;;20.05;;
57828;SDS011;43657;52.698;6.314;2023-10-31T03:21:17;72.30;;;19.80;;
57828;SDS011;43657;52.698;6.314;2023-10-31T03:23:45;71.10;;;20.55;;
57828;SDS011;43657;52.698;6.314;2023-10-31T03:26:13;75.47;;;20.15;;
57828;SDS011;43657;52.698;6.314;2023-10-31T03:28:39;58.85;;;18.75;;
57828;SDS011;43657;52.698;6.314;2023-10-31T03:31:08;45.92;;;15.10;;
57828;SDS011;43657;52.698;6.314;2023-10-31T03:33:40;42.00;;;13.95;;
57828;SDS011;43657;52.698;6.314;2023-10-31T03:36:09;39.58;;;13.48;;
57828;SDS011;43657;52.698;6.314;2023-10-31T03:38:35;29.17;;;11.27;;
57828;SDS011;43657;52.698;6.314;2023-10-31T03:41:01;34.50;;;10.80;;
57828;SDS011;43657;52.698;6.314;2023-10-31T03:43:27;39.42;;;12.30;;
57828;SDS011;43657;52.698;6.314;2023-10-31T03:45:58;26.63;;;8.82;;
57828;SDS011;43657;52.698;6.314;2023-10-31T03:48:30;23.00;;;8.88;;
57828;SDS011;43657;52.698;6.314;2023-10-31T03:51:01;19.95;;;8.70;;
57828;SDS011;43657;52.698;6.314;2023-10-31T03:53:27;12.60;;;7.07;;
57828;SDS011;43657;52.698;6.314;2023-10-31T03:55:52;34.17;;;11.13;;
57828;SDS011;43657;52.698;6.314;2023-10-31T03:58:23;39.05;;;12.43;;
57828;SDS011;43657;52.698;6.314;2023-10-31T04:00:49;25.40;;;8.57;;
57828;SDS011;43657;52.698;6.314;2023-10-31T04:03:14;25.48;;;10.10;;
57828;SDS011;43657;52.698;6.314;2023-10-31T04:05:43;26.73;;;9.75;;
57828;SDS011;43657;52.698;6.314;2023-10-31T04:08:09;31.63;;;11.20;;
57828;SDS011;43657;52.698;6.314;2023-10-31T04:10:35;44.40;;;13.77;;
57828;SDS011;43657;52.698;6.314;2023-10-31T04:13:03;46.60;;;13.35;;
57828;SDS011;43657;52.698;6.314;2023-10-31T04:15:32;53.00;;;15.30;;
57828;SDS011;43657;52.698;6.314;2023-10-31T04:17:59;32.80;;;11.90;;
57828;SDS011;43657;52.698;6.314;2023-10-31T04:20:28;54.90;;;14.88;;
57828;SDS011;43657;52.698;6.314;2023-10-31T04:22:53;30.25;;;11.75;;
57828;SDS011;43657;52.698;6.314;2023-10-31T04:25:19;41.80;;;13.93;;
57828;SDS011;43657;52.698;6.314;2023-10-31T04:27:44;78.45;;;17.88;;
57828;SDS011;43657;52.698;6.314;2023-10-31T04:30:11;47.67;;;14.68;;
57828;SDS011;43657;52.698;6.314;2023-10-31T04:32:36;26.35;;;11.27;;
57828;SDS011;43657;52.698;6.314;2023-10-31T04:35:11;45.20;;;12.77;;
57828;SDS011;43657;52.698;6.314;2023-10-31T04:37:40;47.53;;;12.43;;
57828;SDS011;43657;52.698;6.314;2023-10-31T04:40:08;20.75;;;7.70;;
57828;SDS011;43657;52.698;6.314;2023-10-31T04:42:35;47.75;;;11.50;;
57828;SDS011;43657;52.698;6.314;2023-10-31T04:45:03;48.30;;;9.98;;
57828;SDS011;43657;52.698;6.314;2023-10-31T04:47:29;41.55;;;9.50;;
57828;SDS011;43657;52.698;6.314;2023-10-31T04:49:55;43.67;;;10.18;;
57828;SDS011;43657;52.698;6.314;2023-10-31T04:52:20;32.40;;;8.50;;
57828;SDS011;43657;52.698;6.314;2023-10-31T04:54:47;41.42;;;10.60;;
57828;SDS011;43657;52.698;6.314;2023-10-31T04:57:13;43.83;;;11.52;;
57828;SDS011;43657;52.698;6.314;2023-10-31T04:59:38;59.88;;;13.82;;
57828;SDS011;43657;52.698;6.314;2023-10-31T05:02:04;53.33;;;13.25;;
57828;SDS011;43657;52.698;6.314;2023-10-31T05:04:29;43.72;;;12.50;;
57828;SDS011;43657;52.698;6.314;2023-10-31T05:06:55;42.08;;;10.82;;
57828;SDS011;43657;52.698;6.314;2023-10-31T05:09:21;42.20;;;11.65;;
57828;SDS011;43657;52.698;6.314;2023-10-31T05:11:48;41.63;;;9.68;;
57828;SDS011;43657;52.698;6.314;2023-10-31T05:14:14;43.80;;;10.65;;
57828;SDS011;43657;52.698;6.314;2023-10-31T05:16:40;30.08;;;6.72;;
57828;SDS011;43657;52.698;6.314;2023-10-31T05:19:06;29.90;;;7.18;;
57828;SDS011;43657;52.698;6.314;2023-10-31T05:21:32;29.52;;;7.75;;
57828;SDS011;43657;52.698;6.314;2023-10-31T05:23:57;29.83;;;7.30;;
57828;SDS011;43657;52.698;6.314;2023-10-31T05:26:23;32.70;;;8.98;;
57828;SDS011;43657;52.698;6.314;2023-10-31T05:28:48;31.40;;;8.68;;
57828;SDS011;43657;52.698;6.314;2023-10-31T05:31:17;33.78;;;8.82;;
57828;SDS011;43657;52.698;6.314;2023-10-31T05:33:43;33.67;;;9.10;;
57828;SDS011;43657;52.698;6.314;2023-10-31T05:36:18;27.90;;;8.73;;
57828;SDS011;43657;52.698;6.314;2023-10-31T05:38:44;16.92;;;6.60;;
57828;SDS011;43657;52.698;6.314;2023-10-31T05:41:10;36.38;;;11.15;;
57828;SDS011;43657;52.698;6.314;2023-10-31T05:43:36;24.35;;;10.27;;
57828;SDS011;43657;52.698;6.314;2023-10-31T05:46:01;42.05;;;12.73;;
57828;SDS011;43657;52.698;6.314;2023-10-31T05:48:27;39.72;;;13.55;;
57828;SDS011;43657;52.698;6.314;2023-10-31T05:50:52;37.03;;;13.60;;
57828;SDS011;43657;52.698;6.314;2023-10-31T05:53:18;31.80;;;12.30;;
57828;SDS011;43657;52.698;6.314;2023-10-31T05:55:43;37.97;;;12.60;;
57828;SDS011;43657;52.698;6.314;2023-10-31T05:58:09;29.38;;;10.15;;
57828;SDS011;43657;52.698;6.314;2023-10-31T06:00:34;43.00;;;11.88;;
57828;SDS011;43657;52.698;6.314;2023-10-31T06:03:01;32.35;;;11.20;;
57828;SDS011;43657;52.698;6.314;2023-10-31T06:05:27;31.98;;;10.98;;
57828;SDS011;43657;52.698;6.314;2023-10-31T06:07:53;31.73;;;11.05;;
57828;SDS011;43657;52.698;6.314;2023-10-31T06:10:18;23.65;;;9.35;;
57828;SDS011;43657;52.698;6.314;2023-10-31T06:12:44;34.70;;;11.43;;
57828;SDS011;43657;52.698;6.314;2023-10-31T06:15:09;22.42;;;7.88;;
57828;SDS011;43657;52.698;6.314;2023-10-31T06:17:35;25.05;;;7.55;;
57828;SDS011;43657;52.698;6.314;2023-10-31T06:20:01;30.13;;;8.32;;
57828;SDS011;43657;52.698;6.314;2023-10-31T06:22:27;17.52;;;6.75;;
57828;SDS011;43657;52.698;6.314;2023-10-31T06:24:52;25.48;;;8.30;;
57828;SDS011;43657;52.698;6.314;2023-10-31T06:27:18;31.30;;;9.82;;
57828;SDS011;43657;52.698;6.314;2023-10-31T06:29:44;34.65;;;10.57;;
57828;SDS011;43657;52.698;6.314;2023-10-31T06:32:09;33.92;;;10.85;;
57828;SDS011;43657;52.698;6.314;2023-10-31T06:34:35;33.05;;;10.50;;
57828;SDS011;43657;52.698;6.314;2023-10-31T06:37:00;29.83;;;9.48;;
57828;SDS011;43657;52.698;6.314;2023-10-31T06:39:26;33.72;;;9.52;;
57828;SDS011;43657;52.698;6.314;2023-10-31T06:41:54;42.72;;;10.50;;
57828;SDS011;43657;52.698;6.314;2023-10-31T06:44:20;40.78;;;10.40;;
57828;SDS011;43657;52.698;6.314;2023-10-31T06:46:46;28.27;;;9.55;;
57828;SDS011;43657;52.698;6.314;2023-10-31T06:49:12;20.45;;;8.23;;
57828;SDS011;43657;52.698;6.314;2023-10-31T06:51:37;43.40;;;11.95;;
57828;SDS011;43657;52.698;6.314;2023-10-31T06:54:03;38.83;;;11.18;;
57828;SDS011;43657;52.698;6.314;2023-10-31T06:56:29;28.20;;;10.45;;
57828;SDS011;43657;52.698;6.314;2023-10-31T06:58:54;24.50;;;9.10;;
57828;SDS011;43657;52.698;6.314;2023-10-31T07:01:20;37.42;;;11.60;;
57828;SDS011;43657;52.698;6.314;2023-10-31T07:03:45;26.65;;;9.73;;
57828;SDS011;43657;52.698;6.314;2023-10-31T07:06:12;44.92;;;12.73;;
57828;SDS011;43657;52.698;6.314;2023-10-31T07:08:37;43.63;;;12.05;;
57828;SDS011;43657;52.698;6.314;2023-10-31T07:11:03;44.13;;;11.43;;
57828;SDS011;43657;52.698;6.314;2023-10-31T07:13:30;27.83;;;9.85;;
57828;SDS011;43657;52.698;6.314;2023-10-31T07:15:55;42.10;;;11.13;;
57828;SDS011;43657;52.698;6.314;2023-10-31T07:18:21;33.80;;;9.82;;
57828;SDS011;43657;52.698;6.314;2023-10-31T07:20:47;34.08;;;9.27;;
57828;SDS011;43657;52.698;6.314;2023-10-31T07:23:12;23.65;;;8.90;;
57828;SDS011;43657;52.698;6.314;2023-10-31T07:25:38;28.83;;;9.10;;
57828;SDS011;43657;52.698;6.314;2023-10-31T07:28:03;48.33;;;11.23;;
57828;SDS011;43657;52.698;6.314;2023-10-31T07:30:29;48.95;;;12.32;;
57828;SDS011;43657;52.698;6.314;2023-10-31T07:32:55;49.97;;;13.00;;
57828;SDS011;43657;52.698;6.314;2023-10-31T07:35:20;60.60;;;14.23;;
57828;SDS011;43657;52.698;6.314;2023-10-31T07:37:46;46.97;;;12.95;;
57828;SDS011;43657;52.698;6.314;2023-10-31T07:40:11;40.85;;;13.13;;
57828;SDS011;43657;52.698;6.314;2023-10-31T07:42:37;27.38;;;11.73;;
57828;SDS011;43657;52.698;6.314;2023-10-31T07:45:03;42.13;;;14.30;;
57828;SDS011;43657;52.698;6.314;2023-10-31T07:47:29;39.78;;;15.18;;
57828;SDS011;43657;52.698;6.314;2023-10-31T07:49:54;44.15;;;16.73;;
57828;SDS011;43657;52.698;6.314;2023-10-31T07:52:20;24.63;;;13.57;;
57828;SDS011;43657;52.698;6.314;2023-10-31T07:54:45;23.52;;;13.68;;
57828;SDS011;43657;52.698;6.314;2023-10-31T07:57:11;61.63;;;18.33;;
57828;SDS011;43657;52.698;6.314;2023-10-31T07:59:36;46.05;;;16.55;;
57828;SDS011;43657;52.698;6.314;2023-10-31T08:02:02;44.95;;;15.05;;
57828;SDS011;43657;52.698;6.314;2023-10-31T08:04:28;46.80;;;15.30;;
57828;SDS011;43657;52.698;6.314;2023-10-31T08:06:54;42.53;;;14.18;;
57828;SDS011;43657;52.698;6.314;2023-10-31T08:09:20;31.13;;;11.27;;
57828;SDS011;43657;52.698;6.314;2023-10-31T08:11:46;39.13;;;12.05;;
57828;SDS011;43657;52.698;6.314;2023-10-31T08:14:11;39.40;;;11.82;;
57828;SDS011;43657;52.698;6.314;2023-10-31T08:16:37;35.28;;;10.85;;
57828;SDS011;43657;52.698;6.314;2023-10-31T08:19:03;26.25;;;8.88;;
57828;SDS011;43657;52.698;6.314;2023-10-31T08:21:29;23.58;;;8.07;;
57828;SDS011;43657;52.698;6.314;2023-10-31T08:23:59;34.40;;;9.98;;
57828;SDS011;43657;52.698;6.314;2023-10-31T08:26:25;34.83;;;10.05;;
57828;SDS011;43657;52.698;6.314;2023-10-31T08:28:50;29.30;;;9.38;;
57828;SDS011;43657;52.698;6.314;2023-10-31T08:31:16;33.80;;;10.38;;
57828;SDS011;43657;52.698;6.314;2023-10-31T08:33:42;46.20;;;12.85;;
57828;SDS011;43657;52.698;6.314;2023-10-31T08:36:07;26.20;;;9.55;;
57828;SDS011;43657;52.698;6.314;2023-10-31T08:38:33;56.25;;;15.80;;
57828;SDS011;43657;52.698;6.314;2023-10-31T08:40:59;38.63;;;13.95;;
57828;SDS011;43657;52.698;6.314;2023-10-31T08:43:25;47.53;;;15.77;;
57828;SDS011;43657;52.698;6.314;2023-10-31T08:45:51;51.33;;;16.13;;
57828;SDS011;43657;52.698;6.314;2023-10-31T08:48:17;40.88;;;12.98;;
57828;SDS011;43657;52.698;6.314;2023-10-31T08:50:42;17.65;;;9.35;;
57828;SDS011;43657;52.698;6.314;2023-10-31T08:53:08;32.05;;;11.93;;
57828;SDS011;43657;52.698;6.314;2023-10-31T08:55:34;39.78;;;14.45;;
57828;SDS011;43657;52.698;6.314;2023-10-31T08:58:00;54.90;;;15.02;;
57828;SDS011;43657;52.698;6.314;2023-10-31T09:00:25;25.63;;;10.88;;
57828;SDS011;43657;52.698;6.314;2023-10-31T09:02:53;18.27;;;8.43;;
57828;SDS011;43657;52.698;6.314;2023-10-31T09:05:18;25.42;;;9.15;;
57828;SDS011;43657;52.698;6.314;2023-10-31T09:07:44;29.15;;;9.18;;
57828;SDS011;43657;52.698;6.314;2023-10-31T09:10:11;22.80;;;8.23;;
57828;SDS011;43657;52.698;6.314;2023-10-31T09:12:37;17.58;;;6.47;;
57828;SDS011;43657;52.698;6.314;2023-10-31T09:15:03;16.17;;;4.60;;
57828;SDS011;43657;52.698;6.314;2023-10-31T09:17:29;11.70;;;3.13;;
57828;SDS011;43657;52.698;6.314;2023-10-31T09:19:55;9.77;;;2.75;;
57828;SDS011;43657;52.698;6.314;2023-10-31T09:22:20;14.63;;;3.30;;
57828;SDS011;43657;52.698;6.314;2023-10-31T09:24:46;13.90;;;2.47;;
57828;SDS011;43657;52.698;6.314;2023-10-31T09:27:11;11.98;;;2.08;;
57828;SDS011;43657;52.698;6.314;2023-10-31T09:29:37;17.80;;;2.72;;
57828;SDS011;43657;52.698;6.314;2023-10-31T09:42:25;6.40;;;1.20;;
57828;SDS011;43657;52.698;6.314;2023-10-31T09:44:50;7.00;;;0.80;;
57828;SDS011;43657;52.698;6.314;2023-10-31T09:47:16;7.05;;;1.27;;
57828;SDS011;43657;52.698;6.314;2023-10-31T09:49:42;5.30;;;0.90;;
57828;SDS011;43657;52.698;6.314;2023-10-31T09:52:09;5.43;;;1.33;;
57828;SDS011;43657;52.698;6.314;2023-10-31T09:54:35;2.95;;;0.73;;
57828;SDS011;43657;52.698;6.314;2023-10-31T09:57:03;8.13;;;0.80;;
57828;SDS011;43657;52.698;6.314;2023-10-31T09:59:29;8.00;;;1.08;;
57828;SDS011;43657;52.698;6.314;2023-10-31T10:01:54;6.65;;;0.60;;
57828;SDS011;43657;52.698;6.314;2023-10-31T10:04:21;3.95;;;0.68;;
57828;SDS011;43657;52.698;6.314;2023-10-31T10:07:02;6.20;;;0.73;;
57828;SDS011;43657;52.698;6.314;2023-10-31T10:09:28;5.38;;;0.80;;
57828;SDS011;43657;52.698;6.314;2023-10-31T10:11:55;6.38;;;0.70;;
57828;SDS011;43657;52.698;6.314;2023-10-31T10:14:28;7.18;;;0.95;;
57828;SDS011;43657;52.698;6.314;2023-10-31T10:16:54;4.55;;;0.80;;
57828;SDS011;43657;52.698;6.314;2023-10-31T10:19:21;6.13;;;0.70;;
57828;SDS011;43657;52.698;6.314;2023-10-31T10:21:47;4.47;;;0.80;;
57828;SDS011;43657;52.698;6.314;2023-10-31T10:24:17;4.20;;;0.70;;
57828;SDS011;43657;52.698;6.314;2023-10-31T10:26:43;3.60;;;0.80;;
57828;SDS011;43657;52.698;6.314;2023-10-31T10:29:09;4.15;;;0.90;;
57828;SDS011;43657;52.698;6.314;2023-10-31T10:31:35;4.35;;;0.80;;
57828;SDS011;43657;52.698;6.314;2023-10-31T10:34:00;5.78;;;0.60;;
57828;SDS011;43657;52.698;6.314;2023-10-31T10:36:28;5.60;;;0.50;;
57828;SDS011;43657;52.698;6.314;2023-10-31T10:38:57;5.07;;;0.73;;
57828;SDS011;43657;52.698;6.314;2023-10-31T10:41:27;6.80;;;0.90;;
57828;SDS011;43657;52.698;6.314;2023-10-31T10:43:55;5.38;;;0.68;;
57828;SDS011;43657;52.698;6.314;2023-10-31T10:46:28;7.13;;;1.00;;
57828;SDS011;43657;52.698;6.314;2023-10-31T10:48:56;4.82;;;0.88;;
57828;SDS011;43657;52.698;6.314;2023-10-31T10:51:26;4.20;;;0.63;;
57828;SDS011;43657;52.698;6.314;2023-10-31T10:53:57;6.07;;;0.70;;
57828;SDS011;43657;52.698;6.314;2023-10-31T10:56:34;3.13;;;0.70;;
57828;SDS011;43657;52.698;6.314;2023-10-31T10:59:07;3.78;;;0.65;;
57828;SDS011;43657;52.698;6.314;2023-10-31T11:01:39;6.10;;;1.00;;
57828;SDS011;43657;52.698;6.314;2023-10-31T11:04:06;6.05;;;0.70;;
57828;SDS011;43657;52.698;6.314;2023-10-31T11:06:33;6.07;;;0.80;;
57828;SDS011;43657;52.698;6.314;2023-10-31T11:09:00;4.32;;;0.70;;
57828;SDS011;43657;52.698;6.314;2023-10-31T11:11:26;5.78;;;1.20;;
57828;SDS011;43657;52.698;6.314;2023-10-31T11:13:52;3.63;;;0.60;;
57828;SDS011;43657;52.698;6.314;2023-10-31T11:19:21;6.20;;;0.70;;
57828;SDS011;43657;52.698;6.314;2023-10-31T11:21:56;4.63;;;0.70;;
57828;SDS011;43657;52.698;6.314;2023-10-31T11:24:36;3.88;;;0.60;;
57828;SDS011;43657;52.698;6.314;2023-10-31T11:27:03;4.03;;;0.60;;
57828;SDS011;43657;52.698;6.314;2023-10-31T11:29:31;4.75;;;0.80;;
57828;SDS011;43657;52.698;6.314;2023-10-31T11:31:57;3.90;;;0.80;;
57828;SDS011;43657;52.698;6.314;2023-10-31T11:34:27;2.08;;;0.60;;
57828;SDS011;43657;52.698;6.314;2023-10-31T11:36:54;3.97;;;1.08;;
57828;SDS011;43657;52.698;6.314;2023-10-31T11:42:40;4.03;;;0.60;;
57828;SDS011;43657;52.698;6.314;2023-10-31T11:45:10;5.43;;;0.60;;
57828;SDS011;43657;52.698;6.314;2023-10-31T11:47:45;3.30;;;0.60;;
57828;SDS011;43657;52.698;6.314;2023-10-31T11:50:12;4.07;;;0.65;;
57828;SDS011;43657;52.698;6.314;2023-10-31T11:52:38;3.08;;;0.40;;
57828;SDS011;43657;52.698;6.314;2023-10-31T11:55:04;4.10;;;0.50;;
57828;SDS011;43657;52.698;6.314;2023-10-31T11:57:34;6.35;;;0.90;;
57828;SDS011;43657;52.698;6.314;2023-10-31T11:59:59;3.00;;;0.50;;
57828;SDS011;43657;52.698;6.314;2023-10-31T12:02:25;2.08;;;0.50;;
57828;SDS011;43657;52.698;6.314;2023-10-31T12:04:51;3.10;;;0.60;;
57828;SDS011;43657;52.698;6.314;2023-10-31T12:07:18;2.75;;;0.60;;
57828;SDS011;43657;52.698;6.314;2023-10-31T12:09:47;4.55;;;0.80;;
57828;SDS011;43657;52.698;6.314;2023-10-31T12:12:13;3.00;;;0.60;;
57828;SDS011;43657;52.698;6.314;2023-10-31T12:14:39;5.80;;;0.85;;
57828;SDS011;43657;52.698;6.314;2023-10-31T12:17:05;3.00;;;0.60;;
57828;SDS011;43657;52.698;6.314;2023-10-31T12:19:35;3.88;;;0.43;;
57828;SDS011;43657;52.698;6.314;2023-10-31T12:22:01;3.58;;;0.60;;
57828;SDS011;43657;52.698;6.314;2023-10-31T12:24:28;2.58;;;0.40;;
57828;SDS011;43657;52.698;6.314;2023-10-31T12:26:53;1.85;;;0.35;;
57828;SDS011;43657;52.698;6.314;2023-10-31T12:29:19;1.83;;;0.30;;
57828;SDS011;43657;52.698;6.314;2023-10-31T12:31:47;1.83;;;0.35;;
57828;SDS011;43657;52.698;6.314;2023-10-31T12:34:14;2.60;;;0.30;;
57828;SDS011;43657;52.698;6.314;2023-10-31T12:36:41;2.15;;;0.30;;
57828;SDS011;43657;52.698;6.314;2023-10-31T12:39:08;2.38;;;0.40;;
57828;SDS011;43657;52.698;6.314;2023-10-31T12:41:36;3.58;;;0.50;;
57828;SDS011;43657;52.698;6.314;2023-10-31T12:44:02;3.13;;;0.52;;
57828;SDS011;43657;52.698;6.314;2023-10-31T12:46:30;3.22;;;0.45;;
57828;SDS011;43657;52.698;6.314;2023-10-31T12:48:59;1.95;;;0.40;;
57828;SDS011;43657;52.698;6.314;2023-10-31T12:51:25;2.47;;;0.35;;
57828;SDS011;43657;52.698;6.314;2023-10-31T12:53:50;2.75;;;0.63;;
57828;SDS011;43657;52.698;6.314;2023-10-31T12:59:05;4.18;;;0.70;;
57828;SDS011;43657;52.698;6.314;2023-10-31T13:01:35;2.47;;;0.50;;
57828;SDS011;43657;52.698;6.314;2023-10-31T13:04:04;4.80;;;0.70;;
57828;SDS011;43657;52.698;6.314;2023-10-31T13:06:30;4.85;;;0.70;;
57828;SDS011;43657;52.698;6.314;2023-10-31T13:08:56;3.67;;;0.60;;
57828;SDS011;43657;52.698;6.314;2023-10-31T13:11:31;2.78;;;0.50;;
57828;SDS011;43657;52.698;6.314;2023-10-31T13:13:57;1.70;;;0.40;;
57828;SDS011;43657;52.698;6.314;2023-10-31T13:16:26;1.25;;;0.30;;
57828;SDS011;43657;52.698;6.314;2023-10-31T13:18:53;0.80;;;0.30;;
57828;SDS011;43657;52.698;6.314;2023-10-31T13:21:19;2.58;;;0.30;;
57828;SDS011;43657;52.698;6.314;2023-10-31T13:23:45;2.20;;;0.38;;
57828;SDS011;43657;52.698;6.314;2023-10-31T13:26:12;1.38;;;0.30;;
57828;SDS011;43657;52.698;6.314;2023-10-31T13:28:38;0.80;;;0.45;;
57828;SDS011;43657;52.698;6.314;2023-10-31T13:31:05;4.40;;;0.50;;
57828;SDS011;43657;52.698;6.314;2023-10-31T13:33:31;1.55;;;0.30;;
57828;SDS011;43657;52.698;6.314;2023-10-31T13:35:57;1.42;;;0.50;;
57828;SDS011;43657;52.698;6.314;2023-10-31T13:38:23;1.52;;;0.40;;
57828;SDS011;43657;52.698;6.314;2023-10-31T13:40:48;7.80;;;0.47;;
57828;SDS011;43657;52.698;6.314;2023-10-31T13:43:14;2.30;;;0.50;;
57828;SDS011;43657;52.698;6.314;2023-10-31T13:45:39;1.85;;;0.43;;
57828;SDS011;43657;52.698;6.314;2023-10-31T13:48:05;1.73;;;0.30;;
57828;SDS011;43657;52.698;6.314;2023-10-31T13:50:31;1.63;;;0.57;;
57828;SDS011;43657;52.698;6.314;2023-10-31T13:52:56;0.73;;;0.32;;
57828;SDS011;43657;52.698;6.314;2023-10-31T13:55:22;1.02;;;0.40;;
57828;SDS011;43657;52.698;6.314;2023-10-31T13:57:48;4.53;;;0.60;;
57828;SDS011;43657;52.698;6.314;2023-10-31T14:00:14;2.08;;;0.43;;
57828;SDS011;43657;52.698;6.314;2023-10-31T14:02:40;3.08;;;0.90;;
57828;SDS011;43657;52.698;6.314;2023-10-31T14:05:06;2.05;;;0.50;;
57828;SDS011;43657;52.698;6.314;2023-10-31T14:07:32;1.38;;;0.40;;
57828;SDS011;43657;52.698;6.314;2023-10-31T14:09:58;1.38;;;0.47;;
57828;SDS011;43657;52.698;6.314;2023-10-31T14:12:24;1.20;;;0.30;;
57828;SDS011;43657;52.698;6.314;2023-10-31T14:14:50;2.60;;;0.52;;
57828;SDS011;43657;52.698;6.314;2023-10-31T14:17:16;2.85;;;0.60;;
57828;SDS011;43657;52.698;6.314;2023-10-31T14:19:42;2.10;;;0.50;;
57828;SDS011;43657;52.698;6.314;2023-10-31T14:22:08;1.55;;;0.40;;
57828;SDS011;43657;52.698;6.314;2023-10-31T14:24:33;2.35;;;0.60;;
57828;SDS011;43657;52.698;6.314;2023-10-31T14:27:00;1.75;;;0.60;;
57828;SDS011;43657;52.698;6.314;2023-10-31T14:29:26;4.28;;;0.93;;
57828;SDS011;43657;52.698;6.314;2023-10-31T14:31:51;2.22;;;0.60;;
57828;SDS011;43657;52.698;6.314;2023-10-31T14:34:20;2.35;;;0.50;;
57828;SDS011;43657;52.698;6.314;2023-10-31T14:36:46;3.90;;;0.60;;
57828;SDS011;43657;52.698;6.314;2023-10-31T14:39:11;3.30;;;0.47;;
57828;SDS011;43657;52.698;6.314;2023-10-31T14:41:37;5.00;;;0.60;;
57828;SDS011;43657;52.698;6.314;2023-10-31T14:44:03;2.92;;;0.63;;
57828;SDS011;43657;52.698;6.314;2023-10-31T14:46:29;2.95;;;0.50;;
57828;SDS011;43657;52.698;6.314;2023-10-31T14:48:55;4.35;;;0.90;;
57828;SDS011;43657;52.698;6.314;2023-10-31T14:51:21;3.22;;;0.80;;